sensor_id;sensor_type;location;lat;lon;timestamp;pressure;altitude;pressure_sealevel;temperature;humidity
58690;BME280;44470;53.206;-6.106;2023-02-12T14:54:59;103273.09;;;19.81;63.31
58690;BME280;44470;53.206;-6.106;2023-02-12T14:57:33;103272.22;;;19.82;63.79
58690;BME280;44470;53.206;-6.106;2023-02-12T15:02:48;103269.53;;;19.82;63.92
58690;BME280;44470;53.206;-6.106;2023-02-12T15:05:27;103267.69;;;19.80;63.86
58690;BME280;44470;53.206;-6.106;2023-02-12T15:08:14;103271.31;;;19.82;63.78
58690;BME280;44470;53.206;-6.106;2023-02-12T15:10:49;103259.84;;;19.87;63.46
58690;BME280;44470;53.206;-6.106;2023-02-12T15:13:27;103261.78;;;19.93;63.37
58690;BME280;44470;53.206;-6.106;2023-02-12T15:16:00;103250.25;;;19.96;63.18
58690;BME280;44470;53.206;-6.106;2023-02-12T15:23:55;103261.75;;;19.92;65.08
58690;BME280;44470;53.206;-6.106;2023-02-12T15:26:23;103261.59;;;19.87;63.69
58690;BME280;44470;53.206;-6.106;2023-02-12T15:28:51;103262.41;;;19.81;63.20
58690;BME280;44470;53.206;-6.106;2023-02-12T15:31:25;103271.25;;;19.79;63.07
58690;BME280;44470;53.206;-6.106;2023-02-12T15:33:52;103274.75;;;19.76;63.18
58690;BME280;44470;53.206;-6.106;2023-02-12T15:36:23;103277.38;;;19.74;63.25
58690;BME280;44470;53.206;-6.106;2023-02-12T15:38:55;103281.84;;;19.74;62.79
58690;BME280;44470;53.206;-6.106;2023-02-12T15:41:48;103283.59;;;19.72;62.65
58690;BME280;44470;53.206;-6.106;2023-02-12T15:44:28;103284.47;;;19.71;63.16
58690;BME280;44470;53.206;-6.106;2023-02-12T15:46:59;103288.00;;;19.71;62.93
58690;BME280;44470;53.206;-6.106;2023-02-12T15:49:34;103279.13;;;19.71;63.05
58690;BME280;44470;53.206;-6.106;2023-02-12T15:52:03;103282.66;;;19.70;63.16
58690;BME280;44470;53.206;-6.106;2023-02-12T15:54:30;103287.13;;;19.71;63.38
58690;BME280;44470;53.206;-6.106;2023-02-12T15:56:55;103279.06;;;19.69;63.04
58690;BME280;44470;53.206;-6.106;2023-02-12T15:59:24;103278.19;;;19.70;63.09
58690;BME280;44470;53.206;-6.106;2023-02-12T16:01:57;103274.66;;;19.71;62.88
58690;BME280;44470;53.206;-6.106;2023-02-12T16:04:25;103281.78;;;19.71;63.19
58690;BME280;44470;53.206;-6.106;2023-02-12T16:06:53;103279.13;;;19.71;62.74
58690;BME280;44470;53.206;-6.106;2023-02-12T16:09:29;103269.28;;;19.70;63.36
58690;BME280;44470;53.206;-6.106;2023-02-12T16:11:58;103264.84;;;19.70;63.20
58690;BME280;44470;53.206;-6.106;2023-02-12T16:17:00;103279.91;;;19.67;63.16
58690;BME280;44470;53.206;-6.106;2023-02-12T16:19:32;103279.06;;;19.68;63.10
58690;BME280;44470;53.206;-6.106;2023-02-12T16:22:04;103280.78;;;19.66;63.33
58690;BME280;44470;53.206;-6.106;2023-02-12T16:24:39;103288.81;;;19.67;63.63
58690;BME280;44470;53.206;-6.106;2023-02-12T16:27:19;103283.53;;;19.69;63.45
58690;BME280;44470;53.206;-6.106;2023-02-12T16:29:48;103288.88;;;19.69;63.74
58690;BME280;44470;53.206;-6.106;2023-02-12T16:32:40;103277.25;;;19.68;63.67
58690;BME280;44470;53.206;-6.106;2023-02-12T16:40:16;103275.47;;;19.67;63.27
58690;BME280;44470;53.206;-6.106;2023-02-12T16:47:49;103258.53;;;19.67;63.58
58690;BME280;44470;53.206;-6.106;2023-02-12T16:50:16;103249.59;;;19.65;63.48
58690;BME280;44470;53.206;-6.106;2023-02-12T16:52:42;103241.53;;;19.63;63.54
58690;BME280;44470;53.206;-6.106;2023-02-12T16:55:16;103244.25;;;19.65;63.82
58690;BME280;44470;53.206;-6.106;2023-02-12T16:57:42;103241.59;;;19.65;63.54
58690;BME280;44470;53.206;-6.106;2023-02-12T17:00:13;103251.41;;;19.66;63.61
58690;BME280;44470;53.206;-6.106;2023-02-12T17:02:39;103246.94;;;19.66;64.20
58690;BME280;44470;53.206;-6.106;2023-02-12T17:05:05;103252.41;;;19.71;63.92
58690;BME280;44470;53.206;-6.106;2023-02-12T17:07:32;103255.06;;;19.71;64.74
58690;BME280;44470;53.206;-6.106;2023-02-12T17:09:58;103261.22;;;19.68;64.28
58690;BME280;44470;53.206;-6.106;2023-02-12T17:12:24;103254.09;;;19.67;64.21
58690;BME280;44470;53.206;-6.106;2023-02-12T17:14:50;103254.06;;;19.66;64.19
58690;BME280;44470;53.206;-6.106;2023-02-12T17:17:15;103254.00;;;19.63;64.48
58690;BME280;44470;53.206;-6.106;2023-02-12T17:19:41;103242.44;;;19.64;63.64
58690;BME280;44470;53.206;-6.106;2023-02-12T17:22:07;103254.94;;;19.65;64.55
58690;BME280;44470;53.206;-6.106;2023-02-12T17:24:40;103246.81;;;19.61;63.90
58690;BME280;44470;53.206;-6.106;2023-02-12T17:27:05;103244.19;;;19.63;64.20
58690;BME280;44470;53.206;-6.106;2023-02-12T17:29:32;103252.22;;;19.63;64.06
58690;BME280;44470;53.206;-6.106;2023-02-12T17:31:58;103258.50;;;19.65;65.91
58690;BME280;44470;53.206;-6.106;2023-02-12T17:34:24;103260.28;;;19.65;64.57
58690;BME280;44470;53.206;-6.106;2023-02-12T17:36:49;103251.41;;;19.66;64.46
58690;BME280;44470;53.206;-6.106;2023-02-12T17:39:16;103246.94;;;19.65;64.72
58690;BME280;44470;53.206;-6.106;2023-02-12T17:41:42;103261.16;;;19.65;64.41
58690;BME280;44470;53.206;-6.106;2023-02-12T17:44:08;103255.81;;;19.64;64.89
58690;BME280;44470;53.206;-6.106;2023-02-12T17:46:34;103257.63;;;19.65;64.92
58690;BME280;44470;53.206;-6.106;2023-02-12T17:49:00;103258.53;;;19.67;64.90
58690;BME280;44470;53.206;-6.106;2023-02-12T17:51:25;103254.06;;;19.66;64.85
58690;BME280;44470;53.206;-6.106;2023-02-12T17:53:51;103266.50;;;19.65;65.47
58690;BME280;44470;53.206;-6.106;2023-02-12T17:56:19;103253.16;;;19.65;64.89
58690;BME280;44470;53.206;-6.106;2023-02-12T17:58:46;103263.88;;;19.67;64.69
58690;BME280;44470;53.206;-6.106;2023-02-12T18:01:14;103249.59;;;19.65;64.88
58690;BME280;44470;53.206;-6.106;2023-02-12T18:03:40;103247.75;;;19.62;65.01
58690;BME280;44470;53.206;-6.106;2023-02-12T18:06:06;103249.50;;;19.61;64.87
58690;BME280;44470;53.206;-6.106;2023-02-12T18:08:32;103248.66;;;19.63;64.10
58690;BME280;44470;53.206;-6.106;2023-02-12T18:10:58;103246.81;;;19.61;64.32
58690;BME280;44470;53.206;-6.106;2023-02-12T18:13:28;103252.22;;;19.63;64.69
58690;BME280;44470;53.206;-6.106;2023-02-12T18:15:54;103250.38;;;19.60;64.37
58690;BME280;44470;53.206;-6.106;2023-02-12T18:18:19;103243.28;;;19.61;64.54
58690;BME280;44470;53.206;-6.106;2023-02-12T18:20:45;103231.75;;;19.64;64.36
58690;BME280;44470;53.206;-6.106;2023-02-12T18:23:11;103237.97;;;19.63;64.43
58690;BME280;44470;53.206;-6.106;2023-02-12T18:25:41;103246.94;;;19.65;64.37
58690;BME280;44470;53.206;-6.106;2023-02-12T18:28:06;103247.75;;;19.62;64.25
58690;BME280;44470;53.206;-6.106;2023-02-12T18:30:32;103251.25;;;19.59;64.38
58690;BME280;44470;53.206;-6.106;2023-02-12T18:32:58;103255.81;;;19.64;64.58
58690;BME280;44470;53.206;-6.106;2023-02-12T18:35:23;103249.50;;;19.61;64.26
58690;BME280;44470;53.206;-6.106;2023-02-12T18:37:49;103245.00;;;19.59;63.94
58690;BME280;44470;53.206;-6.106;2023-02-12T18:40:15;103247.75;;;19.62;64.57
58690;BME280;44470;53.206;-6.106;2023-02-12T18:42:40;103235.22;;;19.59;64.27
58690;BME280;44470;53.206;-6.106;2023-02-12T18:45:06;103229.88;;;19.59;64.04
58690;BME280;44470;53.206;-6.106;2023-02-12T18:47:32;103231.59;;;19.57;64.25
58690;BME280;44470;53.206;-6.106;2023-02-12T18:49:57;103230.72;;;19.58;64.40
58690;BME280;44470;53.206;-6.106;2023-02-12T18:52:23;103229.00;;;19.60;64.12
58690;BME280;44470;53.206;-6.106;2023-02-12T18:54:49;103237.97;;;19.63;63.84
58690;BME280;44470;53.206;-6.106;2023-02-12T18:57:15;103237.00;;;19.60;64.16
58690;BME280;44470;53.206;-6.106;2023-02-12T18:59:41;103244.84;;;19.51;62.78
58690;BME280;44470;53.206;-6.106;2023-02-12T19:02:07;103238.50;;;19.46;62.72
58690;BME280;44470;53.206;-6.106;2023-02-12T19:04:32;103233.88;;;19.37;61.14
58690;BME280;44470;53.206;-6.106;2023-02-12T19:06:58;103235.56;;;19.34;60.91
58690;BME280;44470;53.206;-6.106;2023-02-12T19:09:24;103242.59;;;19.30;60.41
58690;BME280;44470;53.206;-6.106;2023-02-12T19:11:53;103239.91;;;19.28;58.82
58690;BME280;44470;53.206;-6.106;2023-02-12T19:14:19;103229.03;;;19.21;56.16
58690;BME280;44470;53.206;-6.106;2023-02-12T19:16:46;103234.38;;;19.21;57.30
58690;BME280;44470;53.206;-6.106;2023-02-12T19:19:13;103242.38;;;19.21;56.17
58690;BME280;44470;53.206;-6.106;2023-02-12T19:21:39;103229.81;;;19.15;54.43
58690;BME280;44470;53.206;-6.106;2023-02-12T19:24:05;103227.06;;;19.12;56.04
58690;BME280;44470;53.206;-6.106;2023-02-12T19:26:32;103220.81;;;19.11;55.40
58690;BME280;44470;53.206;-6.106;2023-02-12T19:28:59;103216.28;;;19.09;55.01
58690;BME280;44470;53.206;-6.106;2023-02-12T19:31:30;103209.13;;;19.06;54.37
58690;BME280;44470;53.206;-6.106;2023-02-12T19:33:58;103209.94;;;19.03;52.16
58690;BME280;44470;53.206;-6.106;2023-02-12T19:36:25;103214.34;;;19.01;52.50
58690;BME280;44470;53.206;-6.106;2023-02-12T19:38:52;103211.66;;;19.00;51.92
58690;BME280;44470;53.206;-6.106;2023-02-12T19:41:21;103203.50;;;18.95;50.99
58690;BME280;44470;53.206;-6.106;2023-02-12T19:43:47;103199.94;;;18.95;51.98
58690;BME280;44470;53.206;-6.106;2023-02-12T19:46:17;103203.44;;;18.92;51.35
58690;BME280;44470;53.206;-6.106;2023-02-12T19:48:44;103206.09;;;18.92;52.55
58690;BME280;44470;53.206;-6.106;2023-02-12T19:51:15;103196.28;;;18.90;52.89
58690;BME280;44470;53.206;-6.106;2023-02-12T19:53:42;103198.03;;;18.89;54.71
58690;BME280;44470;53.206;-6.106;2023-02-12T19:56:07;103196.16;;;18.85;57.02
58690;BME280;44470;53.206;-6.106;2023-02-12T19:58:33;103185.53;;;18.86;52.62
58690;BME280;44470;53.206;-6.106;2023-02-12T20:00:59;103184.53;;;18.83;51.62
58690;BME280;44470;53.206;-6.106;2023-02-12T20:03:25;103178.25;;;18.81;49.19
58690;BME280;44470;53.206;-6.106;2023-02-12T20:06:02;103187.13;;;18.80;51.20
58690;BME280;44470;53.206;-6.106;2023-02-12T20:08:28;103171.94;;;18.77;49.64
58690;BME280;44470;53.206;-6.106;2023-02-12T20:10:53;103171.00;;;18.75;48.75
58690;BME280;44470;53.206;-6.106;2023-02-12T20:13:19;103172.72;;;18.71;51.50
58690;BME280;44470;53.206;-6.106;2023-02-12T20:15:47;103169.19;;;18.72;49.65
58690;BME280;44470;53.206;-6.106;2023-02-12T20:18:12;103166.59;;;18.76;55.64
58690;BME280;44470;53.206;-6.106;2023-02-12T20:20:38;103157.56;;;18.70;51.94
58690;BME280;44470;53.206;-6.106;2023-02-12T20:23:04;103158.50;;;18.72;52.01
58690;BME280;44470;53.206;-6.106;2023-02-12T20:25:30;103165.88;;;18.83;54.64
58690;BME280;44470;53.206;-6.106;2023-02-12T20:27:57;103160.72;;;18.92;55.70
58690;BME280;44470;53.206;-6.106;2023-02-12T20:30:23;103155.56;;;18.98;57.88
58690;BME280;44470;53.206;-6.106;2023-02-12T20:32:48;103150.22;;;18.98;57.42
58690;BME280;44470;53.206;-6.106;2023-02-12T20:35:14;103151.94;;;18.96;58.17
58690;BME280;44470;53.206;-6.106;2023-02-12T20:37:43;103158.13;;;18.94;58.19
58690;BME280;44470;53.206;-6.106;2023-02-12T20:40:09;103159.72;;;18.85;57.72
58690;BME280;44470;53.206;-6.106;2023-02-12T20:42:35;103161.38;;;18.82;56.32
58690;BME280;44470;53.206;-6.106;2023-02-12T20:45:03;103157.78;;;18.80;56.46
58690;BME280;44470;53.206;-6.106;2023-02-12T20:47:28;103148.78;;;18.76;56.33
58690;BME280;44470;53.206;-6.106;2023-02-12T20:49:54;103152.44;;;18.80;58.06
58690;BME280;44470;53.206;-6.106;2023-02-12T20:52:21;103147.13;;;18.81;57.94
58690;BME280;44470;53.206;-6.106;2023-02-12T20:54:47;103148.13;;;18.85;57.91
58690;BME280;44470;53.206;-6.106;2023-02-12T20:57:12;103144.59;;;18.86;57.73
58690;BME280;44470;53.206;-6.106;2023-02-12T20:59:38;103149.13;;;18.90;57.77
58690;BME280;44470;53.206;-6.106;2023-02-12T21:02:04;103151.84;;;18.93;58.18
58690;BME280;44470;53.206;-6.106;2023-02-12T21:04:30;103142.06;;;18.92;57.79
58690;BME280;44470;53.206;-6.106;2023-02-12T21:06:55;103139.31;;;18.89;57.68
58690;BME280;44470;53.206;-6.106;2023-02-12T21:09:21;103131.28;;;18.87;58.29
58690;BME280;44470;53.206;-6.106;2023-02-12T21:11:47;103134.03;;;18.92;58.10
58690;BME280;44470;53.206;-6.106;2023-02-12T21:14:13;103140.38;;;18.96;58.40
58690;BME280;44470;53.206;-6.106;2023-02-12T21:16:39;103142.22;;;18.98;58.69
58690;BME280;44470;53.206;-6.106;2023-02-12T21:19:06;103126.03;;;18.92;58.94
58690;BME280;44470;53.206;-6.106;2023-02-12T21:21:37;103137.66;;;18.94;58.81
58690;BME280;44470;53.206;-6.106;2023-02-12T21:24:06;103129.66;;;18.94;59.09
58690;BME280;44470;53.206;-6.106;2023-02-12T21:26:32;103126.91;;;18.91;59.33
58690;BME280;44470;53.206;-6.106;2023-02-12T21:29:00;103131.50;;;18.97;60.02
58690;BME280;44470;53.206;-6.106;2023-02-12T21:33:54;103137.75;;;18.97;59.92
58690;BME280;44470;53.206;-6.106;2023-02-12T21:36:25;103121.56;;;18.91;60.39
58690;BME280;44470;53.206;-6.106;2023-02-12T21:38:51;103125.16;;;18.93;60.34
58690;BME280;44470;53.206;-6.106;2023-02-12T21:41:22;103133.34;;;18.98;60.61
58690;BME280;44470;53.206;-6.106;2023-02-12T21:43:55;103128.78;;;18.95;59.97
58690;BME280;44470;53.206;-6.106;2023-02-12T21:46:21;103125.25;;;18.96;60.81
58690;BME280;44470;53.206;-6.106;2023-02-12T21:48:47;103127.06;;;18.97;60.52
58690;BME280;44470;53.206;-6.106;2023-02-12T21:51:19;103122.66;;;18.98;60.89
58690;BME280;44470;53.206;-6.106;2023-02-12T21:53:46;103118.16;;;18.97;60.95
58690;BME280;44470;53.206;-6.106;2023-02-12T21:56:13;103136.16;;;19.06;60.67
58690;BME280;44470;53.206;-6.106;2023-02-12T21:58:38;103114.66;;;18.98;60.57
58690;BME280;44470;53.206;-6.106;2023-02-12T22:01:09;103123.59;;;19.01;61.08
58690;BME280;44470;53.206;-6.106;2023-02-12T22:03:35;103108.47;;;19.00;61.23
58690;BME280;44470;53.206;-6.106;2023-02-12T22:06:02;103108.34;;;18.96;61.55
58690;BME280;44470;53.206;-6.106;2023-02-12T22:08:28;103108.53;;;19.03;61.29
58690;BME280;44470;53.206;-6.106;2023-02-12T22:10:53;103109.41;;;19.02;61.27
58690;BME280;44470;53.206;-6.106;2023-02-12T22:13:19;103100.38;;;18.97;61.08
58690;BME280;44470;53.206;-6.106;2023-02-12T22:15:45;103109.44;;;19.04;61.70
58690;BME280;44470;53.206;-6.106;2023-02-12T22:18:10;103097.78;;;19.00;61.16
58690;BME280;44470;53.206;-6.106;2023-02-12T22:20:35;103102.31;;;19.05;61.32
58690;BME280;44470;53.206;-6.106;2023-02-12T22:23:01;103096.06;;;19.02;61.52
58690;BME280;44470;53.206;-6.106;2023-02-12T22:25:26;103095.13;;;19.00;61.63
58690;BME280;44470;53.206;-6.106;2023-02-12T22:27:52;103087.09;;;18.99;61.77
58690;BME280;44470;53.206;-6.106;2023-02-12T22:30:18;103088.84;;;18.98;61.47
58690;BME280;44470;53.206;-6.106;2023-02-12T22:32:43;103099.72;;;19.08;61.67
58690;BME280;44470;53.206;-6.106;2023-02-12T22:35:09;103082.63;;;18.99;61.73
58690;BME280;44470;53.206;-6.106;2023-02-12T22:37:38;103097.91;;;19.07;61.75
58690;BME280;44470;53.206;-6.106;2023-02-12T22:40:04;103105.03;;;19.06;61.91
58690;BME280;44470;53.206;-6.106;2023-02-12T22:42:30;103103.34;;;19.10;61.74
58690;BME280;44470;53.206;-6.106;2023-02-12T22:44:56;103103.19;;;19.03;62.11
58690;BME280;44470;53.206;-6.106;2023-02-12T22:47:22;103096.91;;;19.01;62.39
58690;BME280;44470;53.206;-6.106;2023-02-12T22:49:48;103092.44;;;18.99;62.14
58690;BME280;44470;53.206;-6.106;2023-02-12T22:52:13;103090.69;;;19.01;61.99
58690;BME280;44470;53.206;-6.106;2023-02-12T22:54:39;103090.69;;;19.01;62.23
58690;BME280;44470;53.206;-6.106;2023-02-12T22:57:04;103076.38;;;18.97;62.06
58690;BME280;44470;53.206;-6.106;2023-02-12T22:59:30;103081.78;;;19.00;62.33
58690;BME280;44470;53.206;-6.106;2023-02-12T23:01:55;103098.78;;;19.06;62.42
58690;BME280;44470;53.206;-6.106;2023-02-12T23:04:23;103091.66;;;19.05;62.49
58690;BME280;44470;53.206;-6.106;2023-02-12T23:06:49;103080.91;;;19.01;62.57
58690;BME280;44470;53.206;-6.106;2023-02-12T23:09:16;103084.50;;;19.03;62.47
58690;BME280;44470;53.206;-6.106;2023-02-12T23:11:43;103078.28;;;19.03;62.38
58690;BME280;44470;53.206;-6.106;2023-02-12T23:14:09;103100.75;;;19.13;62.78
58690;BME280;44470;53.206;-6.106;2023-02-12T23:16:35;103104.34;;;19.16;62.71
58690;BME280;44470;53.206;-6.106;2023-02-12T23:19:00;103102.59;;;19.17;62.68
58690;BME280;44470;53.206;-6.106;2023-02-12T23:21:28;103085.53;;;19.10;62.46
58690;BME280;44470;53.206;-6.106;2023-02-12T23:23:54;103108.81;;;19.17;63.04
58690;BME280;44470;53.206;-6.106;2023-02-12T23:26:20;103091.81;;;19.11;62.93
58690;BME280;44470;53.206;-6.106;2023-02-12T23:28:46;103088.16;;;19.09;63.23
58690;BME280;44470;53.206;-6.106;2023-02-12T23:31:11;103091.88;;;19.14;62.90
58690;BME280;44470;53.206;-6.106;2023-02-12T23:33:37;103083.78;;;19.11;62.94
58690;BME280;44470;53.206;-6.106;2023-02-12T23:36:03;103091.00;;;19.16;62.71
58690;BME280;44470;53.206;-6.106;2023-02-12T23:38:28;103087.34;;;19.11;63.15
58690;BME280;44470;53.206;-6.106;2023-02-12T23:40:54;103088.25;;;19.12;62.96
58690;BME280;44470;53.206;-6.106;2023-02-12T23:43:19;103085.59;;;19.12;62.86
58690;BME280;44470;53.206;-6.106;2023-02-12T23:45:45;103092.78;;;19.16;62.73
58690;BME280;44470;53.206;-6.106;2023-02-12T23:48:11;103092.84;;;19.19;63.14
58690;BME280;44470;53.206;-6.106;2023-02-12T23:50:36;103082.94;;;19.12;63.02
58690;BME280;44470;53.206;-6.106;2023-02-12T23:53:02;103078.47;;;19.11;63.17
58690;BME280;44470;53.206;-6.106;2023-02-12T23:55:27;103083.75;;;19.09;63.21
58690;BME280;44470;53.206;-6.106;2023-02-12T23:57:53;103086.53;;;19.14;63.16
